sensor_id;sensor_type;location;lat;lon;timestamp;P1;durP1;ratioP1;P2;durP2;ratioP2
32321;SDS011;61553;48.994;8.940;2022-10-13T00:01:12;26.13;;;13.00;;
32321;SDS011;61553;48.994;8.940;2022-10-13T00:03:39;22.95;;;13.27;;
32321;SDS011;61553;48.994;8.940;2022-10-13T00:06:07;23.98;;;12.57;;
32321;SDS011;61553;48.994;8.940;2022-10-13T00:08:33;21.92;;;12.70;;
32321;SDS011;61553;48.994;8.940;2022-10-13T00:11:00;23.13;;;13.23;;
32321;SDS011;61553;48.994;8.940;2022-10-13T00:13:32;21.65;;;12.77;;
32321;SDS011;61553;48.994;8.940;2022-10-13T00:16:00;71.07;;;18.58;;
32321;SDS011;61553;48.994;8.940;2022-10-13T00:18:26;37.47;;;15.82;;
32321;SDS011;61553;48.994;8.940;2022-10-13T00:20:52;33.15;;;14.80;;
32321;SDS011;61553;48.994;8.940;2022-10-13T00:23:18;26.13;;;14.35;;
32321;SDS011;61553;48.994;8.940;2022-10-13T00:25:45;41.28;;;15.98;;
32321;SDS011;61553;48.994;8.940;2022-10-13T00:28:12;25.35;;;14.95;;
32321;SDS011;61553;48.994;8.940;2022-10-13T00:30:39;31.98;;;16.17;;
32321;SDS011;61553;48.994;8.940;2022-10-13T00:33:06;27.85;;;15.63;;
32321;SDS011;61553;48.994;8.940;2022-10-13T00:35:33;27.08;;;15.07;;
32321;SDS011;61553;48.994;8.940;2022-10-13T00:38:03;29.17;;;15.00;;
32321;SDS011;61553;48.994;8.940;2022-10-13T00:40:29;29.90;;;16.27;;
32321;SDS011;61553;48.994;8.940;2022-10-13T00:42:55;28.83;;;15.10;;
32321;SDS011;61553;48.994;8.940;2022-10-13T00:45:27;26.67;;;14.65;;
32321;SDS011;61553;48.994;8.940;2022-10-13T00:47:54;27.70;;;15.50;;
32321;SDS011;61553;48.994;8.940;2022-10-13T00:50:23;38.03;;;16.52;;
32321;SDS011;61553;48.994;8.940;2022-10-13T00:52:52;42.13;;;15.63;;
32321;SDS011;61553;48.994;8.940;2022-10-13T00:55:20;26.63;;;14.68;;
32321;SDS011;61553;48.994;8.940;2022-10-13T00:57:48;28.50;;;15.82;;
32321;SDS011;61553;48.994;8.940;2022-10-13T01:00:19;27.73;;;16.13;;
32321;SDS011;61553;48.994;8.940;2022-10-13T01:02:48;35.85;;;16.77;;
32321;SDS011;61553;48.994;8.940;2022-10-13T01:05:14;29.15;;;15.70;;
32321;SDS011;61553;48.994;8.940;2022-10-13T01:07:40;41.67;;;19.25;;
32321;SDS011;61553;48.994;8.940;2022-10-13T01:10:06;36.55;;;18.58;;
32321;SDS011;61553;48.994;8.940;2022-10-13T01:12:49;34.53;;;18.10;;
32321;SDS011;61553;48.994;8.940;2022-10-13T01:21:15;33.13;;;17.80;;
32321;SDS011;61553;48.994;8.940;2022-10-13T01:23:54;31.80;;;16.67;;
32321;SDS011;61553;48.994;8.940;2022-10-13T01:32:11;43.63;;;16.90;;
32321;SDS011;61553;48.994;8.940;2022-10-13T01:35:00;29.83;;;16.63;;
32321;SDS011;61553;48.994;8.940;2022-10-13T01:37:58;29.88;;;16.77;;
32321;SDS011;61553;48.994;8.940;2022-10-13T01:40:29;28.88;;;14.65;;
32321;SDS011;61553;48.994;8.940;2022-10-13T01:43:22;31.77;;;15.40;;
32321;SDS011;61553;48.994;8.940;2022-10-13T01:48:44;40.53;;;16.98;;
32321;SDS011;61553;48.994;8.940;2022-10-13T01:51:11;30.70;;;15.93;;
32321;SDS011;61553;48.994;8.940;2022-10-13T01:53:41;54.08;;;17.67;;
32321;SDS011;61553;48.994;8.940;2022-10-13T01:56:09;40.08;;;16.65;;
32321;SDS011;61553;48.994;8.940;2022-10-13T01:58:35;40.20;;;18.55;;
32321;SDS011;61553;48.994;8.940;2022-10-13T02:01:09;30.08;;;16.45;;
32321;SDS011;61553;48.994;8.940;2022-10-13T02:06:21;39.55;;;17.88;;
32321;SDS011;61553;48.994;8.940;2022-10-13T02:09:16;29.13;;;17.00;;
32321;SDS011;61553;48.994;8.940;2022-10-13T02:11:55;59.33;;;19.55;;
32321;SDS011;61553;48.994;8.940;2022-10-13T02:14:25;39.50;;;18.83;;
32321;SDS011;61553;48.994;8.940;2022-10-13T02:16:53;31.63;;;16.77;;
32321;SDS011;61553;48.994;8.940;2022-10-13T02:19:21;39.83;;;18.38;;
32321;SDS011;61553;48.994;8.940;2022-10-13T02:21:47;41.50;;;18.30;;
32321;SDS011;61553;48.994;8.940;2022-10-13T02:24:13;29.75;;;16.90;;
32321;SDS011;61553;48.994;8.940;2022-10-13T02:26:39;32.58;;;18.27;;
32321;SDS011;61553;48.994;8.940;2022-10-13T02:29:06;38.95;;;18.00;;
32321;SDS011;61553;48.994;8.940;2022-10-13T02:31:33;69.45;;;19.75;;
32321;SDS011;61553;48.994;8.940;2022-10-13T02:33:59;30.02;;;17.00;;
32321;SDS011;61553;48.994;8.940;2022-10-13T02:36:25;28.50;;;15.95;;
32321;SDS011;61553;48.994;8.940;2022-10-13T02:38:50;48.85;;;18.85;;
32321;SDS011;61553;48.994;8.940;2022-10-13T02:41:16;35.78;;;18.70;;
32321;SDS011;61553;48.994;8.940;2022-10-13T02:43:41;53.22;;;18.73;;
32321;SDS011;61553;48.994;8.940;2022-10-13T02:46:07;30.73;;;17.23;;
32321;SDS011;61553;48.994;8.940;2022-10-13T02:48:33;35.22;;;17.50;;
32321;SDS011;61553;48.994;8.940;2022-10-13T02:50:58;27.55;;;15.50;;
32321;SDS011;61553;48.994;8.940;2022-10-13T02:53:24;26.67;;;15.80;;
32321;SDS011;61553;48.994;8.940;2022-10-13T02:55:50;23.13;;;14.05;;
32321;SDS011;61553;48.994;8.940;2022-10-13T02:58:15;22.67;;;14.15;;
32321;SDS011;61553;48.994;8.940;2022-10-13T03:00:41;20.27;;;13.18;;
32321;SDS011;61553;48.994;8.940;2022-10-13T03:03:06;21.65;;;13.13;;
32321;SDS011;61553;48.994;8.940;2022-10-13T03:05:32;20.10;;;11.65;;
32321;SDS011;61553;48.994;8.940;2022-10-13T03:07:58;19.73;;;12.35;;
32321;SDS011;61553;48.994;8.940;2022-10-13T03:10:23;20.27;;;12.48;;
32321;SDS011;61553;48.994;8.940;2022-10-13T03:12:50;18.40;;;11.77;;
32321;SDS011;61553;48.994;8.940;2022-10-13T03:15:15;19.58;;;12.32;;
32321;SDS011;61553;48.994;8.940;2022-10-13T03:17:41;19.13;;;12.45;;
32321;SDS011;61553;48.994;8.940;2022-10-13T03:20:07;20.30;;;13.38;;
32321;SDS011;61553;48.994;8.940;2022-10-13T03:22:33;19.33;;;12.65;;
32321;SDS011;61553;48.994;8.940;2022-10-13T03:24:59;21.02;;;12.73;;
32321;SDS011;61553;48.994;8.940;2022-10-13T03:27:24;19.17;;;12.02;;
32321;SDS011;61553;48.994;8.940;2022-10-13T03:29:50;22.85;;;13.65;;
32321;SDS011;61553;48.994;8.940;2022-10-13T03:32:16;24.50;;;15.20;;
32321;SDS011;61553;48.994;8.940;2022-10-13T03:34:41;23.67;;;15.27;;
32321;SDS011;61553;48.994;8.940;2022-10-13T03:37:07;26.88;;;18.85;;
32321;SDS011;61553;48.994;8.940;2022-10-13T03:39:33;28.58;;;16.55;;
32321;SDS011;61553;48.994;8.940;2022-10-13T03:41:58;27.83;;;18.05;;
32321;SDS011;61553;48.994;8.940;2022-10-13T03:44:24;31.23;;;17.48;;
32321;SDS011;61553;48.994;8.940;2022-10-13T03:46:50;33.47;;;18.38;;
32321;SDS011;61553;48.994;8.940;2022-10-13T03:49:15;31.30;;;17.50;;
32321;SDS011;61553;48.994;8.940;2022-10-13T03:51:42;30.15;;;16.45;;
32321;SDS011;61553;48.994;8.940;2022-10-13T03:54:11;32.88;;;18.65;;
32321;SDS011;61553;48.994;8.940;2022-10-13T03:56:38;32.88;;;17.95;;
32321;SDS011;61553;48.994;8.940;2022-10-13T03:59:04;32.83;;;18.40;;
32321;SDS011;61553;48.994;8.940;2022-10-13T04:01:31;31.13;;;17.67;;
32321;SDS011;61553;48.994;8.940;2022-10-13T04:03:57;27.48;;;15.95;;
32321;SDS011;61553;48.994;8.940;2022-10-13T04:06:26;36.53;;;19.58;;
32321;SDS011;61553;48.994;8.940;2022-10-13T04:08:52;29.75;;;17.38;;
32321;SDS011;61553;48.994;8.940;2022-10-13T04:11:18;31.55;;;15.43;;
32321;SDS011;61553;48.994;8.940;2022-10-13T04:13:44;27.40;;;16.02;;
32321;SDS011;61553;48.994;8.940;2022-10-13T04:16:16;28.02;;;15.27;;
32321;SDS011;61553;48.994;8.940;2022-10-13T04:18:44;22.65;;;13.70;;
32321;SDS011;61553;48.994;8.940;2022-10-13T04:21:14;23.55;;;13.63;;
32321;SDS011;61553;48.994;8.940;2022-10-13T04:23:40;21.27;;;13.55;;
32321;SDS011;61553;48.994;8.940;2022-10-13T04:26:06;20.67;;;13.13;;
32321;SDS011;61553;48.994;8.940;2022-10-13T04:28:38;22.60;;;14.00;;
32321;SDS011;61553;48.994;8.940;2022-10-13T04:31:04;22.20;;;13.52;;
32321;SDS011;61553;48.994;8.940;2022-10-13T04:33:29;25.77;;;14.15;;
32321;SDS011;61553;48.994;8.940;2022-10-13T04:35:55;27.15;;;15.15;;
32321;SDS011;61553;48.994;8.940;2022-10-13T04:38:21;26.95;;;14.77;;
32321;SDS011;61553;48.994;8.940;2022-10-13T04:40:47;28.92;;;15.77;;
32321;SDS011;61553;48.994;8.940;2022-10-13T04:43:14;23.02;;;14.05;;
32321;SDS011;61553;48.994;8.940;2022-10-13T04:45:40;26.73;;;14.23;;
32321;SDS011;61553;48.994;8.940;2022-10-13T04:48:05;24.48;;;13.82;;
32321;SDS011;61553;48.994;8.940;2022-10-13T04:50:31;26.13;;;14.15;;
32321;SDS011;61553;48.994;8.940;2022-10-13T04:52:57;29.77;;;15.63;;
32321;SDS011;61553;48.994;8.940;2022-10-13T04:55:23;30.55;;;15.50;;
32321;SDS011;61553;48.994;8.940;2022-10-13T04:57:49;25.80;;;14.13;;
32321;SDS011;61553;48.994;8.940;2022-10-13T05:00:15;31.48;;;16.95;;
32321;SDS011;61553;48.994;8.940;2022-10-13T05:02:41;38.78;;;16.83;;
32321;SDS011;61553;48.994;8.940;2022-10-13T05:05:07;29.20;;;17.80;;
32321;SDS011;61553;48.994;8.940;2022-10-13T05:07:34;27.45;;;16.33;;
32321;SDS011;61553;48.994;8.940;2022-10-13T05:09:59;25.23;;;13.93;;
32321;SDS011;61553;48.994;8.940;2022-10-13T05:12:25;30.80;;;14.82;;
32321;SDS011;61553;48.994;8.940;2022-10-13T05:14:51;37.55;;;15.90;;
32321;SDS011;61553;48.994;8.940;2022-10-13T05:17:16;33.30;;;15.57;;
32321;SDS011;61553;48.994;8.940;2022-10-13T05:19:42;30.02;;;14.57;;
32321;SDS011;61553;48.994;8.940;2022-10-13T05:22:08;30.73;;;15.68;;
32321;SDS011;61553;48.994;8.940;2022-10-13T05:24:33;31.70;;;15.85;;
32321;SDS011;61553;48.994;8.940;2022-10-13T05:27:06;26.20;;;16.45;;
32321;SDS011;61553;48.994;8.940;2022-10-13T05:29:36;27.85;;;16.60;;
32321;SDS011;61553;48.994;8.940;2022-10-13T05:32:03;31.83;;;16.95;;
32321;SDS011;61553;48.994;8.940;2022-10-13T05:34:29;26.35;;;15.63;;
32321;SDS011;61553;48.994;8.940;2022-10-13T05:36:56;28.00;;;15.55;;
32321;SDS011;61553;48.994;8.940;2022-10-13T05:39:23;28.85;;;16.55;;
32321;SDS011;61553;48.994;8.940;2022-10-13T05:41:48;26.23;;;14.98;;
32321;SDS011;61553;48.994;8.940;2022-10-13T05:44:14;31.85;;;18.60;;
32321;SDS011;61553;48.994;8.940;2022-10-13T05:46:41;34.83;;;19.35;;
32321;SDS011;61553;48.994;8.940;2022-10-13T05:49:08;28.80;;;18.25;;
32321;SDS011;61553;48.994;8.940;2022-10-13T05:51:42;37.53;;;19.02;;
32321;SDS011;61553;48.994;8.940;2022-10-13T05:54:18;34.67;;;19.10;;
32321;SDS011;61553;48.994;8.940;2022-10-13T05:57:00;37.85;;;19.75;;
32321;SDS011;61553;48.994;8.940;2022-10-13T05:59:31;36.05;;;23.65;;
32321;SDS011;61553;48.994;8.940;2022-10-13T06:02:00;46.33;;;25.33;;
32321;SDS011;61553;48.994;8.940;2022-10-13T06:04:34;38.85;;;24.25;;
32321;SDS011;61553;48.994;8.940;2022-10-13T06:07:03;45.30;;;29.00;;
32321;SDS011;61553;48.994;8.940;2022-10-13T06:09:33;39.95;;;23.88;;
32321;SDS011;61553;48.994;8.940;2022-10-13T06:12:02;40.72;;;23.30;;
32321;SDS011;61553;48.994;8.940;2022-10-13T06:14:28;40.08;;;22.10;;
32321;SDS011;61553;48.994;8.940;2022-10-13T06:16:54;42.95;;;21.88;;
32321;SDS011;61553;48.994;8.940;2022-10-13T06:19:20;43.40;;;24.23;;
32321;SDS011;61553;48.994;8.940;2022-10-13T06:21:46;41.90;;;23.63;;
32321;SDS011;61553;48.994;8.940;2022-10-13T06:24:11;48.70;;;26.65;;
32321;SDS011;61553;48.994;8.940;2022-10-13T06:26:37;44.58;;;23.40;;
32321;SDS011;61553;48.994;8.940;2022-10-13T06:29:03;41.95;;;23.75;;
32321;SDS011;61553;48.994;8.940;2022-10-13T06:31:28;39.83;;;23.52;;
32321;SDS011;61553;48.994;8.940;2022-10-13T06:33:54;36.20;;;21.35;;
32321;SDS011;61553;48.994;8.940;2022-10-13T06:36:20;36.80;;;22.42;;
32321;SDS011;61553;48.994;8.940;2022-10-13T06:38:45;37.50;;;21.83;;
32321;SDS011;61553;48.994;8.940;2022-10-13T06:41:11;36.58;;;21.35;;
32321;SDS011;61553;48.994;8.940;2022-10-13T06:43:38;33.90;;;20.52;;
32321;SDS011;61553;48.994;8.940;2022-10-13T06:46:04;32.75;;;20.17;;
32321;SDS011;61553;48.994;8.940;2022-10-13T06:48:30;31.92;;;20.35;;
32321;SDS011;61553;48.994;8.940;2022-10-13T06:50:59;40.92;;;20.80;;
32321;SDS011;61553;48.994;8.940;2022-10-13T06:53:26;35.38;;;19.95;;
32321;SDS011;61553;48.994;8.940;2022-10-13T06:55:54;38.90;;;20.58;;
32321;SDS011;61553;48.994;8.940;2022-10-13T06:58:24;33.03;;;20.35;;
32321;SDS011;61553;48.994;8.940;2022-10-13T07:00:50;38.22;;;20.23;;
32321;SDS011;61553;48.994;8.940;2022-10-13T07:03:15;35.47;;;19.67;;
32321;SDS011;61553;48.994;8.940;2022-10-13T07:05:41;32.92;;;20.52;;
32321;SDS011;61553;48.994;8.940;2022-10-13T07:08:07;36.90;;;21.42;;
32321;SDS011;61553;48.994;8.940;2022-10-13T07:10:32;36.53;;;21.65;;
32321;SDS011;61553;48.994;8.940;2022-10-13T07:12:58;39.22;;;23.00;;
32321;SDS011;61553;48.994;8.940;2022-10-13T07:15:24;35.30;;;22.30;;
32321;SDS011;61553;48.994;8.940;2022-10-13T07:17:50;39.40;;;21.38;;
32321;SDS011;61553;48.994;8.940;2022-10-13T07:20:18;39.30;;;21.70;;
32321;SDS011;61553;48.994;8.940;2022-10-13T07:22:45;40.45;;;20.80;;
32321;SDS011;61553;48.994;8.940;2022-10-13T07:25:11;39.08;;;20.27;;
32321;SDS011;61553;48.994;8.940;2022-10-13T07:27:37;28.85;;;19.55;;
32321;SDS011;61553;48.994;8.940;2022-10-13T07:30:04;37.72;;;21.20;;
32321;SDS011;61553;48.994;8.940;2022-10-13T07:32:32;31.38;;;19.17;;
32321;SDS011;61553;48.994;8.940;2022-10-13T07:34:57;29.63;;;19.45;;
32321;SDS011;61553;48.994;8.940;2022-10-13T07:37:23;32.03;;;19.42;;
32321;SDS011;61553;48.994;8.940;2022-10-13T07:39:50;37.05;;;19.38;;
32321;SDS011;61553;48.994;8.940;2022-10-13T07:42:16;36.58;;;19.25;;
32321;SDS011;61553;48.994;8.940;2022-10-13T07:44:42;27.92;;;17.00;;
32321;SDS011;61553;48.994;8.940;2022-10-13T07:47:07;26.38;;;16.77;;
32321;SDS011;61553;48.994;8.940;2022-10-13T07:49:33;24.25;;;16.48;;
32321;SDS011;61553;48.994;8.940;2022-10-13T07:51:59;23.98;;;15.90;;
32321;SDS011;61553;48.994;8.940;2022-10-13T07:54:25;26.98;;;16.15;;
32321;SDS011;61553;48.994;8.940;2022-10-13T07:56:51;32.90;;;16.88;;
32321;SDS011;61553;48.994;8.940;2022-10-13T07:59:18;26.52;;;16.33;;
32321;SDS011;61553;48.994;8.940;2022-10-13T08:01:43;26.30;;;15.52;;
32321;SDS011;61553;48.994;8.940;2022-10-13T08:04:09;26.45;;;15.18;;
32321;SDS011;61553;48.994;8.940;2022-10-13T08:06:35;24.52;;;14.88;;
32321;SDS011;61553;48.994;8.940;2022-10-13T08:09:01;34.33;;;15.10;;
32321;SDS011;61553;48.994;8.940;2022-10-13T08:11:28;22.27;;;14.27;;
32321;SDS011;61553;48.994;8.940;2022-10-13T08:13:54;18.05;;;13.20;;
32321;SDS011;61553;48.994;8.940;2022-10-13T08:16:24;22.73;;;13.90;;
32321;SDS011;61553;48.994;8.940;2022-10-13T08:18:51;24.15;;;12.90;;
32321;SDS011;61553;48.994;8.940;2022-10-13T08:21:18;23.33;;;14.45;;
32321;SDS011;61553;48.994;8.940;2022-10-13T08:23:46;20.65;;;12.73;;
32321;SDS011;61553;48.994;8.940;2022-10-13T08:26:17;20.30;;;13.05;;
32321;SDS011;61553;48.994;8.940;2022-10-13T08:28:45;23.70;;;12.45;;
32321;SDS011;61553;48.994;8.940;2022-10-13T08:31:11;18.65;;;11.88;;
32321;SDS011;61553;48.994;8.940;2022-10-13T08:33:37;24.13;;;13.25;;
32321;SDS011;61553;48.994;8.940;2022-10-13T08:36:03;19.95;;;12.60;;
32321;SDS011;61553;48.994;8.940;2022-10-13T08:38:28;19.75;;;12.27;;
32321;SDS011;61553;48.994;8.940;2022-10-13T08:40:54;18.67;;;11.50;;
32321;SDS011;61553;48.994;8.940;2022-10-13T08:43:20;19.70;;;13.05;;
32321;SDS011;61553;48.994;8.940;2022-10-13T08:45:48;19.50;;;12.25;;
32321;SDS011;61553;48.994;8.940;2022-10-13T08:48:17;20.67;;;12.90;;
32321;SDS011;61553;48.994;8.940;2022-10-13T08:50:48;21.30;;;12.25;;
32321;SDS011;61553;48.994;8.940;2022-10-13T08:55:55;20.15;;;12.68;;
32321;SDS011;61553;48.994;8.940;2022-10-13T08:58:28;22.73;;;13.25;;
32321;SDS011;61553;48.994;8.940;2022-10-13T09:01:02;23.98;;;13.68;;
32321;SDS011;61553;48.994;8.940;2022-10-13T09:03:51;19.98;;;11.90;;
32321;SDS011;61553;48.994;8.940;2022-10-13T09:13:44;20.90;;;12.90;;
32321;SDS011;61553;48.994;8.940;2022-10-13T09:16:10;20.83;;;12.63;;
32321;SDS011;61553;48.994;8.940;2022-10-13T09:18:35;21.00;;;12.77;;
32321;SDS011;61553;48.994;8.940;2022-10-13T09:23:42;23.92;;;13.77;;
32321;SDS011;61553;48.994;8.940;2022-10-13T09:26:12;19.25;;;12.32;;
32321;SDS011;61553;48.994;8.940;2022-10-13T09:28:42;23.05;;;13.48;;
32321;SDS011;61553;48.994;8.940;2022-10-13T09:31:19;17.60;;;11.88;;
32321;SDS011;61553;48.994;8.940;2022-10-13T09:33:55;23.10;;;13.43;;
32321;SDS011;61553;48.994;8.940;2022-10-13T09:36:26;24.00;;;12.82;;
32321;SDS011;61553;48.994;8.940;2022-10-13T09:41:39;21.55;;;12.77;;
32321;SDS011;61553;48.994;8.940;2022-10-13T09:44:11;23.45;;;13.07;;
32321;SDS011;61553;48.994;8.940;2022-10-13T09:46:59;19.15;;;12.05;;
32321;SDS011;61553;48.994;8.940;2022-10-13T09:52:18;19.70;;;13.40;;
32321;SDS011;61553;48.994;8.940;2022-10-13T09:54:48;19.15;;;11.77;;
32321;SDS011;61553;48.994;8.940;2022-10-13T10:00:10;18.83;;;13.27;;
32321;SDS011;61553;48.994;8.940;2022-10-13T10:02:56;21.67;;;14.07;;
32321;SDS011;61553;48.994;8.940;2022-10-13T10:05:49;22.50;;;13.88;;
32321;SDS011;61553;48.994;8.940;2022-10-13T10:08:35;19.88;;;13.10;;
32321;SDS011;61553;48.994;8.940;2022-10-13T10:11:02;18.92;;;12.85;;
32321;SDS011;61553;48.994;8.940;2022-10-13T10:13:34;27.17;;;13.25;;
32321;SDS011;61553;48.994;8.940;2022-10-13T10:19:41;21.88;;;13.18;;
32321;SDS011;61553;48.994;8.940;2022-10-13T10:21:56;22.92;;;13.02;;
32321;SDS011;61553;48.994;8.940;2022-10-13T10:27:37;24.55;;;13.10;;
32321;SDS011;61553;48.994;8.940;2022-10-13T10:30:28;23.20;;;12.57;;
32321;SDS011;61553;48.994;8.940;2022-10-13T10:33:02;22.33;;;12.73;;
32321;SDS011;61553;48.994;8.940;2022-10-13T10:38:57;22.30;;;11.25;;
32321;SDS011;61553;48.994;8.940;2022-10-13T10:44:28;18.85;;;12.20;;
32321;SDS011;61553;48.994;8.940;2022-10-13T10:47:00;24.33;;;12.52;;
32321;SDS011;61553;48.994;8.940;2022-10-13T10:49:30;19.02;;;11.35;;
32321;SDS011;61553;48.994;8.940;2022-10-13T10:51:59;22.40;;;11.68;;
32321;SDS011;61553;48.994;8.940;2022-10-13T10:54:36;17.93;;;12.80;;
32321;SDS011;61553;48.994;8.940;2022-10-13T10:57:35;16.98;;;10.48;;
32321;SDS011;61553;48.994;8.940;2022-10-13T11:05:21;19.13;;;10.68;;
32321;SDS011;61553;48.994;8.940;2022-10-13T11:07:53;17.73;;;11.00;;
32321;SDS011;61553;48.994;8.940;2022-10-13T11:17:52;21.35;;;11.13;;
32321;SDS011;61553;48.994;8.940;2022-10-13T11:30:45;16.83;;;10.95;;
32321;SDS011;61553;48.994;8.940;2022-10-13T11:33:34;15.98;;;10.68;;
32321;SDS011;61553;48.994;8.940;2022-10-13T11:42:01;15.18;;;8.57;;
32321;SDS011;61553;48.994;8.940;2022-10-13T11:52:49;19.17;;;9.68;;
32321;SDS011;61553;48.994;8.940;2022-10-13T11:55:29;18.83;;;9.27;;
32321;SDS011;61553;48.994;8.940;2022-10-13T11:58:16;14.95;;;8.75;;
32321;SDS011;61553;48.994;8.940;2022-10-13T12:00:58;17.70;;;9.40;;
32321;SDS011;61553;48.994;8.940;2022-10-13T12:03:37;17.38;;;8.93;;
32321;SDS011;61553;48.994;8.940;2022-10-13T12:06:05;13.18;;;8.63;;
32321;SDS011;61553;48.994;8.940;2022-10-13T12:08:57;13.45;;;9.00;;
32321;SDS011;61553;48.994;8.940;2022-10-13T12:11:44;13.38;;;8.20;;
32321;SDS011;61553;48.994;8.940;2022-10-13T12:14:19;13.18;;;7.85;;
32321;SDS011;61553;48.994;8.940;2022-10-13T12:16:54;12.25;;;7.72;;
32321;SDS011;61553;48.994;8.940;2022-10-13T12:19:22;12.57;;;7.32;;
32321;SDS011;61553;48.994;8.940;2022-10-13T12:21:53;16.77;;;7.40;;
32321;SDS011;61553;48.994;8.940;2022-10-13T12:24:21;12.68;;;8.07;;
32321;SDS011;61553;48.994;8.940;2022-10-13T12:26:48;19.33;;;9.57;;
32321;SDS011;61553;48.994;8.940;2022-10-13T12:29:14;13.23;;;9.38;;
32321;SDS011;61553;48.994;8.940;2022-10-13T12:31:49;13.32;;;8.23;;
32321;SDS011;61553;48.994;8.940;2022-10-13T12:39:42;19.63;;;8.30;;
32321;SDS011;61553;48.994;8.940;2022-10-13T12:42:09;16.27;;;8.85;;
32321;SDS011;61553;48.994;8.940;2022-10-13T12:44:38;16.70;;;8.30;;
32321;SDS011;61553;48.994;8.940;2022-10-13T12:47:04;18.08;;;9.40;;
32321;SDS011;61553;48.994;8.940;2022-10-13T12:49:50;17.15;;;8.38;;
32321;SDS011;61553;48.994;8.940;2022-10-13T12:52:16;25.75;;;9.57;;
32321;SDS011;61553;48.994;8.940;2022-10-13T12:54:52;18.08;;;9.75;;
32321;SDS011;61553;48.994;8.940;2022-10-13T12:57:20;19.83;;;8.57;;
32321;SDS011;61553;48.994;8.940;2022-10-13T13:00:18;18.38;;;8.73;;
32321;SDS011;61553;48.994;8.940;2022-10-13T13:02:51;17.40;;;7.75;;
32321;SDS011;61553;48.994;8.940;2022-10-13T13:07:59;12.43;;;7.43;;
32321;SDS011;61553;48.994;8.940;2022-10-13T13:10:26;17.38;;;7.95;;
32321;SDS011;61553;48.994;8.940;2022-10-13T13:12:52;14.63;;;8.50;;
32321;SDS011;61553;48.994;8.940;2022-10-13T13:20:56;16.95;;;7.72;;
32321;SDS011;61553;48.994;8.940;2022-10-13T13:23:22;13.75;;;7.13;;
32321;SDS011;61553;48.994;8.940;2022-10-13T13:26:04;14.82;;;7.35;;
32321;SDS011;61553;48.994;8.940;2022-10-13T13:31:14;12.13;;;6.60;;
32321;SDS011;61553;48.994;8.940;2022-10-13T13:33:41;13.52;;;6.93;;
32321;SDS011;61553;48.994;8.940;2022-10-13T13:36:13;12.02;;;6.72;;
32321;SDS011;61553;48.994;8.940;2022-10-13T13:38:41;11.43;;;6.75;;
32321;SDS011;61553;48.994;8.940;2022-10-13T13:41:08;12.48;;;6.88;;
32321;SDS011;61553;48.994;8.940;2022-10-13T13:43:35;12.15;;;5.90;;
32321;SDS011;61553;48.994;8.940;2022-10-13T13:46:02;7.60;;;5.20;;
32321;SDS011;61553;48.994;8.940;2022-10-13T13:48:30;11.40;;;5.45;;
32321;SDS011;61553;48.994;8.940;2022-10-13T13:50:56;11.68;;;6.10;;
32321;SDS011;61553;48.994;8.940;2022-10-13T13:53:21;14.68;;;5.82;;
32321;SDS011;61553;48.994;8.940;2022-10-13T13:55:47;13.93;;;5.95;;
32321;SDS011;61553;48.994;8.940;2022-10-13T13:58:13;11.98;;;5.90;;
32321;SDS011;61553;48.994;8.940;2022-10-13T14:00:38;13.23;;;5.80;;
32321;SDS011;61553;48.994;8.940;2022-10-13T14:03:04;19.33;;;15.52;;
32321;SDS011;61553;48.994;8.940;2022-10-13T14:05:30;15.55;;;8.13;;
32321;SDS011;61553;48.994;8.940;2022-10-13T14:07:56;16.38;;;10.30;;
32321;SDS011;61553;48.994;8.940;2022-10-13T14:10:22;13.18;;;7.95;;
32321;SDS011;61553;48.994;8.940;2022-10-13T14:12:49;10.63;;;5.63;;
32321;SDS011;61553;48.994;8.940;2022-10-13T14:15:15;9.65;;;5.30;;
32321;SDS011;61553;48.994;8.940;2022-10-13T14:17:41;11.30;;;5.03;;
32321;SDS011;61553;48.994;8.940;2022-10-13T14:20:07;12.95;;;5.85;;
32321;SDS011;61553;48.994;8.940;2022-10-13T14:22:33;13.30;;;6.18;;
32321;SDS011;61553;48.994;8.940;2022-10-13T14:25:02;14.35;;;6.68;;
32321;SDS011;61553;48.994;8.940;2022-10-13T14:27:28;12.48;;;5.20;;
32321;SDS011;61553;48.994;8.940;2022-10-13T14:29:55;12.38;;;5.68;;
32321;SDS011;61553;48.994;8.940;2022-10-13T14:32:20;13.57;;;5.95;;
32321;SDS011;61553;48.994;8.940;2022-10-13T14:34:46;10.48;;;5.60;;
32321;SDS011;61553;48.994;8.940;2022-10-13T14:37:12;10.63;;;5.53;;
32321;SDS011;61553;48.994;8.940;2022-10-13T14:39:37;10.52;;;4.70;;
32321;SDS011;61553;48.994;8.940;2022-10-13T14:42:03;15.02;;;6.40;;
32321;SDS011;61553;48.994;8.940;2022-10-13T14:44:29;15.88;;;5.68;;
32321;SDS011;61553;48.994;8.940;2022-10-13T14:46:54;10.45;;;5.35;;
32321;SDS011;61553;48.994;8.940;2022-10-13T14:49:20;13.70;;;5.68;;
32321;SDS011;61553;48.994;8.940;2022-10-13T14:51:46;15.73;;;6.22;;
32321;SDS011;61553;48.994;8.940;2022-10-13T14:54:11;13.35;;;6.50;;
32321;SDS011;61553;48.994;8.940;2022-10-13T14:56:37;13.48;;;5.78;;
32321;SDS011;61553;48.994;8.940;2022-10-13T14:59:04;9.88;;;6.43;;
32321;SDS011;61553;48.994;8.940;2022-10-13T15:01:31;13.15;;;6.35;;
32321;SDS011;61553;48.994;8.940;2022-10-13T15:03:57;17.17;;;7.00;;
32321;SDS011;61553;48.994;8.940;2022-10-13T15:06:24;18.20;;;7.57;;
32321;SDS011;61553;48.994;8.940;2022-10-13T15:08:50;21.63;;;8.13;;
32321;SDS011;61553;48.994;8.940;2022-10-13T15:11:16;16.08;;;8.73;;
32321;SDS011;61553;48.994;8.940;2022-10-13T15:13:43;13.05;;;8.35;;
32321;SDS011;61553;48.994;8.940;2022-10-13T15:16:28;19.00;;;8.23;;
32321;SDS011;61553;48.994;8.940;2022-10-13T15:18:57;16.02;;;7.25;;
32321;SDS011;61553;48.994;8.940;2022-10-13T15:21:23;15.02;;;7.60;;
32321;SDS011;61553;48.994;8.940;2022-10-13T15:23:50;13.48;;;8.07;;
32321;SDS011;61553;48.994;8.940;2022-10-13T15:26:16;19.10;;;8.50;;
32321;SDS011;61553;48.994;8.940;2022-10-13T15:28:45;23.83;;;10.32;;
32321;SDS011;61553;48.994;8.940;2022-10-13T15:31:12;25.83;;;11.88;;
32321;SDS011;61553;48.994;8.940;2022-10-13T15:33:41;21.05;;;11.32;;
32321;SDS011;61553;48.994;8.940;2022-10-13T15:36:07;21.65;;;10.68;;
32321;SDS011;61553;48.994;8.940;2022-10-13T15:38:33;24.90;;;16.38;;
32321;SDS011;61553;48.994;8.940;2022-10-13T15:40:59;22.95;;;10.63;;
32321;SDS011;61553;48.994;8.940;2022-10-13T15:43:25;17.50;;;11.77;;
32321;SDS011;61553;48.994;8.940;2022-10-13T15:45:52;19.17;;;9.90;;
32321;SDS011;61553;48.994;8.940;2022-10-13T15:48:29;18.73;;;9.77;;
32321;SDS011;61553;48.994;8.940;2022-10-13T15:50:55;20.00;;;9.18;;
32321;SDS011;61553;48.994;8.940;2022-10-13T15:53:21;17.38;;;8.95;;
32321;SDS011;61553;48.994;8.940;2022-10-13T15:55:47;26.63;;;10.10;;
32321;SDS011;61553;48.994;8.940;2022-10-13T15:58:14;25.20;;;9.45;;
32321;SDS011;61553;48.994;8.940;2022-10-13T16:00:40;24.35;;;9.45;;
32321;SDS011;61553;48.994;8.940;2022-10-13T16:03:06;18.20;;;9.60;;
32321;SDS011;61553;48.994;8.940;2022-10-13T16:05:32;25.15;;;11.10;;
32321;SDS011;61553;48.994;8.940;2022-10-13T16:07:57;20.15;;;11.13;;
32321;SDS011;61553;48.994;8.940;2022-10-13T16:10:23;25.75;;;11.95;;
32321;SDS011;61553;48.994;8.940;2022-10-13T16:12:49;26.63;;;14.05;;
32321;SDS011;61553;48.994;8.940;2022-10-13T16:15:15;29.40;;;18.10;;
32321;SDS011;61553;48.994;8.940;2022-10-13T16:17:42;29.90;;;18.08;;
32321;SDS011;61553;48.994;8.940;2022-10-13T16:20:10;38.42;;;19.00;;